Terminal Aerodrome Forecast
Issued by NWS Mt. Holly, NJ

Home | Current Version | Previous Version | Text Only | Print | Product List | Glossary On
Versions: 1 2 3 4 5 6 7 8 9 10 11 12 13 14 15 16 17 18 19 20 21 22 23 24 25
000
FTUS41 KPHI 211100
TAFPHL
TAF
KPHL 211132Z 2112/2218 22003KT P6SM FEW050 BKN150
     FM211600 27006KT P6SM VCSH BKN100
     FM212100 32006KT P6SM -SHRA BKN050
     FM220200 01003KT P6SM VCSH OVC040
     FM220700 03008KT 6SM -RA SCT025 OVC040
     FM221100 03010KT 4SM -RA BR OVC025=

USA.gov is the U.S. government's official web portal to all federal, state and local government web resources and services.